createdAt,value
2023-02-11T00:01:36.106Z,8.90
2023-02-11T00:04:06.455Z,8.80
2023-02-11T00:06:36.033Z,8.90
2023-02-11T00:09:05.191Z,8.90
2023-02-11T00:11:33.721Z,8.90
2023-02-11T00:14:04.253Z,8.90
2023-02-11T00:16:33.866Z,8.90
2023-02-11T00:19:03.742Z,8.90
2023-02-11T00:21:31.914Z,8.90
2023-02-11T00:24:02.448Z,8.90
2023-02-11T00:26:34.122Z,8.90
2023-02-11T00:29:02.680Z,8.90
2023-02-11T00:31:31.088Z,8.90
2023-02-11T00:34:00.689Z,8.90
2023-02-11T00:36:30.342Z,8.90
2023-02-11T00:38:59.690Z,8.90
2023-02-11T00:41:27.958Z,8.90
2023-02-11T00:43:56.162Z,8.90
2023-02-11T00:46:24.668Z,8.90
2023-02-11T00:48:55.032Z,8.90
2023-02-11T00:51:24.969Z,8.90
2023-02-11T00:53:53.752Z,8.90
2023-02-11T00:56:22.162Z,8.90
2023-02-11T00:58:50.351Z,8.90
2023-02-11T01:01:18.741Z,8.90
2023-02-11T01:03:47.183Z,8.80
2023-02-11T01:06:15.484Z,8.80
2023-02-11T01:08:45.037Z,8.80
2023-02-11T01:11:14.992Z,8.70
2023-02-11T01:13:44.097Z,8.70
2023-02-11T01:16:12.804Z,8.70
2023-02-11T01:18:44.226Z,8.70
2023-02-11T01:21:13.138Z,8.60
2023-02-11T01:23:41.370Z,8.60
2023-02-11T01:26:10.938Z,8.50
2023-02-11T01:28:39.096Z,8.50
2023-02-11T01:31:07.333Z,8.50
2023-02-11T01:33:35.629Z,8.50
2023-02-11T01:36:04.917Z,8.50
2023-02-11T01:38:33.655Z,8.40
2023-02-11T01:41:04.562Z,8.40
2023-02-11T01:43:37.095Z,8.40
2023-02-11T01:46:24.452Z,8.30
2023-02-11T01:48:55.808Z,8.30
2023-02-11T01:51:28.659Z,8.20
2023-02-11T01:54:15.552Z,8.20
2023-02-11T01:57:04.896Z,8.10
2023-02-11T01:59:39.606Z,8.10
2023-02-11T02:02:11.764Z,8.10
2023-02-11T02:04:43.245Z,8.10
2023-02-11T02:07:15.353Z,8.00
2023-02-11T02:09:46.642Z,8.00
2023-02-11T02:12:14.904Z,8.00
2023-02-11T02:14:44.589Z,8.00
2023-02-11T02:17:23.547Z,8.00
2023-02-11T02:20:14.619Z,8.00
2023-02-11T02:23:11.239Z,8.00
2023-02-11T02:26:04.730Z,8.00
2023-02-11T02:28:57.260Z,8.00
2023-02-11T02:31:40.834Z,8.00
2023-02-11T02:34:18.358Z,8.00
2023-02-11T02:36:52.924Z,8.00
2023-02-11T02:39:27.186Z,8.00
2023-02-11T02:41:57.171Z,8.00
2023-02-11T02:44:25.744Z,8.00
2023-02-11T02:46:54.019Z,8.00
2023-02-11T02:49:23.630Z,8.00
2023-02-11T02:52:12.752Z,7.90
2023-02-11T02:55:16.550Z,7.90
2023-02-11T02:58:04.423Z,7.90
2023-02-11T03:00:44.179Z,7.90
2023-02-11T03:03:23.562Z,7.80
2023-02-11T03:05:59.313Z,7.80
2023-02-11T03:08:33.454Z,7.80
2023-02-11T03:11:04.377Z,7.70
2023-02-11T03:13:35.571Z,7.70
2023-02-11T03:16:09.300Z,7.60
2023-02-11T03:18:39.280Z,7.60
2023-02-11T03:21:11.047Z,7.50
2023-02-11T03:23:43.164Z,7.50
2023-02-11T03:26:18.068Z,7.50
2023-02-11T03:28:52.383Z,7.50
2023-02-11T03:31:28.120Z,7.50
2023-02-11T03:34:02.260Z,7.50
2023-02-11T03:36:36.899Z,7.60
2023-02-11T03:39:07.188Z,7.60
2023-02-11T03:41:36.607Z,7.60
2023-02-11T03:44:06.863Z,7.60
2023-02-11T03:46:38.363Z,7.60
2023-02-11T03:49:10.643Z,7.70
2023-02-11T03:51:41.247Z,7.60
2023-02-11T03:54:14.768Z,7.60
2023-02-11T03:56:50.224Z,7.60
2023-02-11T03:59:18.479Z,7.60
2023-02-11T04:01:46.769Z,7.50
2023-02-11T04:04:15.409Z,7.50
2023-02-11T04:06:45.132Z,7.50
2023-02-11T04:09:13.750Z,7.50
2023-02-11T04:11:41.937Z,7.50
2023-02-11T04:14:10.141Z,7.50
2023-02-11T04:16:38.377Z,7.50
2023-02-11T04:19:06.544Z,7.50
2023-02-11T04:21:34.714Z,7.50
2023-02-11T04:24:04.496Z,7.50
2023-02-11T04:26:32.712Z,7.50
2023-02-11T04:29:00.922Z,7.50
2023-02-11T04:31:29.514Z,7.50
2023-02-11T04:33:58.490Z,7.50
2023-02-11T04:36:26.660Z,7.50
2023-02-11T04:38:54.844Z,7.50
2023-02-11T04:41:24.510Z,7.50
2023-02-11T04:43:52.709Z,7.50
2023-02-11T04:46:20.938Z,7.50
2023-02-11T04:48:49.091Z,7.50
2023-02-11T04:51:17.300Z,7.50
2023-02-11T04:53:45.503Z,7.60
2023-02-11T04:56:13.723Z,7.60
2023-02-11T04:58:43.334Z,7.60
2023-02-11T05:01:13.610Z,7.60
2023-02-11T05:03:42.825Z,7.50
2023-02-11T05:06:11.969Z,7.50
2023-02-11T05:08:40.476Z,7.50
2023-02-11T05:11:15.329Z,7.50
2023-02-11T05:13:45.136Z,7.50
2023-02-11T05:16:13.564Z,7.50
2023-02-11T05:18:42.605Z,7.50
2023-02-11T05:21:12.582Z,7.50
2023-02-11T05:23:41.239Z,7.60
2023-02-11T05:26:10.077Z,7.60
2023-02-11T05:28:38.278Z,7.60
2023-02-11T05:31:08.105Z,7.50
2023-02-11T05:33:36.482Z,7.50
2023-02-11T05:36:07.548Z,7.50
2023-02-11T05:38:36.104Z,7.50
2023-02-11T05:41:05.347Z,7.50
2023-02-11T05:43:35.163Z,7.50
2023-02-11T05:46:03.842Z,7.50
2023-02-11T05:48:33.693Z,7.50
2023-02-11T05:51:02.018Z,7.50
2023-02-11T05:53:30.187Z,7.50
2023-02-11T05:55:58.507Z,7.50
2023-02-11T05:58:26.703Z,7.50
2023-02-11T06:00:54.887Z,7.50
2023-02-11T06:03:23.057Z,7.60
2023-02-11T06:05:52.814Z,7.60
2023-02-11T06:08:21.175Z,7.60
2023-02-11T06:10:49.367Z,7.60
2023-02-11T06:13:18.560Z,7.60
2023-02-11T06:15:47.199Z,7.60
2023-02-11T06:18:15.372Z,7.60
2023-02-11T06:20:43.547Z,7.70
2023-02-11T06:23:13.263Z,7.60
2023-02-11T06:25:41.482Z,7.60
2023-02-11T06:28:10.593Z,7.60
2023-02-11T06:30:39.263Z,7.60
2023-02-11T06:33:07.514Z,7.60
2023-02-11T06:35:36.597Z,7.60
2023-02-11T06:38:04.722Z,7.60
2023-02-11T06:40:34.485Z,7.60
2023-02-11T06:43:02.669Z,7.60
2023-02-11T06:45:30.810Z,7.60
2023-02-11T06:47:58.948Z,7.70
2023-02-11T06:50:27.075Z,7.70
2023-02-11T06:52:55.246Z,7.80
2023-02-11T06:55:23.500Z,7.70
2023-02-11T06:57:53.072Z,7.70
2023-02-11T07:00:21.333Z,7.70
2023-02-11T07:02:49.605Z,7.70
2023-02-11T07:05:17.854Z,7.70
2023-02-11T07:07:46.033Z,7.70
2023-02-11T07:10:14.312Z,7.70
2023-02-11T07:12:42.494Z,7.80
2023-02-11T07:15:12.222Z,7.80
2023-02-11T07:17:40.360Z,7.80
2023-02-11T07:20:09.536Z,7.80
2023-02-11T07:22:37.638Z,7.80
2023-02-11T07:25:06.700Z,7.80
2023-02-11T07:27:34.845Z,7.80
2023-02-11T07:30:04.924Z,7.80
2023-02-11T07:32:36.509Z,7.80
2023-02-11T07:35:05.228Z,7.80
2023-02-11T07:37:35.359Z,7.80
2023-02-11T07:40:04.125Z,7.80
2023-02-11T07:42:32.398Z,7.80
2023-02-11T07:45:00.663Z,7.80
2023-02-11T07:47:29.286Z,7.80
2023-02-11T07:49:58.964Z,7.70
2023-02-11T07:52:30.043Z,7.70
2023-02-11T07:54:58.407Z,7.70
2023-02-11T07:57:26.906Z,7.60
2023-02-11T07:59:55.143Z,7.60
2023-02-11T08:02:23.460Z,7.50
2023-02-11T08:04:51.745Z,7.60
2023-02-11T08:07:21.270Z,7.50
2023-02-11T08:09:49.484Z,7.50
2023-02-11T08:12:17.731Z,7.50
2023-02-11T08:14:45.857Z,7.50
2023-02-11T08:17:14.175Z,7.60
2023-02-11T08:19:42.404Z,7.60
2023-02-11T08:22:10.610Z,7.70
2023-02-11T08:24:40.200Z,7.70
2023-02-11T08:27:08.457Z,7.70
2023-02-11T08:29:36.683Z,7.70
2023-02-11T08:32:05.067Z,7.70
2023-02-11T08:34:34.109Z,7.70
2023-02-11T14:41:10.959Z,7.60
2023-02-11T14:43:42.991Z,7.70
2023-02-11T14:46:11.730Z,7.90
2023-02-11T14:48:44.554Z,8.10
2023-02-11T14:51:16.796Z,8.30
2023-02-11T14:53:50.009Z,8.50
2023-02-11T14:56:21.730Z,8.70
2023-02-11T14:58:52.134Z,8.80
2023-02-11T15:01:32.014Z,8.90
2023-02-11T15:04:04.124Z,9.00
2023-02-11T15:06:33.931Z,9.00
2023-02-11T15:09:05.655Z,9.10
2023-02-11T15:11:39.768Z,9.20
2023-02-11T15:14:11.679Z,9.20
2023-02-11T15:16:43.504Z,9.30
2023-02-11T15:19:21.365Z,9.40
2023-02-11T15:21:50.859Z,9.40
2023-02-11T15:24:25.477Z,9.40
2023-02-11T15:27:00.248Z,9.40
2023-02-11T15:29:35.355Z,9.40
2023-02-11T15:32:16.868Z,9.40
2023-02-11T15:34:46.242Z,9.50
2023-02-11T15:37:18.180Z,9.50
2023-02-11T15:39:46.454Z,9.60
2023-02-11T15:42:24.522Z,9.50
2023-02-11T15:45:12.767Z,9.60
2023-02-11T15:47:43.259Z,9.70
2023-02-11T15:50:22.095Z,9.70
2023-02-11T15:52:50.803Z,9.70
2023-02-11T15:55:20.118Z,9.70
2023-02-11T15:57:55.159Z,9.70
2023-02-11T16:00:26.089Z,9.70
2023-02-11T16:02:54.843Z,9.70
2023-02-11T16:05:30.212Z,9.70
2023-02-11T16:07:59.712Z,9.70
2023-02-11T16:10:30.624Z,9.70
2023-02-11T16:13:20.254Z,9.70
2023-02-11T16:15:52.430Z,9.80
2023-02-11T16:18:39.023Z,9.70
2023-02-11T16:21:14.463Z,9.70
2023-02-11T16:23:43.236Z,9.70
2023-02-11T16:26:22.943Z,9.70
2023-02-11T16:28:53.001Z,9.70
2023-02-11T16:31:21.467Z,9.70
2023-02-11T16:33:50.180Z,9.80
2023-02-11T16:36:18.556Z,9.80
2023-02-11T16:38:46.783Z,9.80
2023-02-11T16:41:15.152Z,9.80
2023-02-11T16:43:43.371Z,9.80
2023-02-11T16:46:16.784Z,9.80
2023-02-11T16:48:46.689Z,9.80
2023-02-11T16:51:15.407Z,9.80
2023-02-11T16:53:43.584Z,9.80
2023-02-11T16:56:16.609Z,9.80
2023-02-11T16:58:45.360Z,9.80
2023-02-11T17:01:15.055Z,9.90
2023-02-11T17:03:43.698Z,9.90
2023-02-11T17:06:14.023Z,9.90
2023-02-11T17:08:42.481Z,9.90
2023-02-11T17:11:10.743Z,9.90
2023-02-11T17:13:39.457Z,9.90
2023-02-11T17:16:14.747Z,9.90
2023-02-11T17:18:42.936Z,9.90
2023-02-11T17:21:11.201Z,9.90
2023-02-11T17:23:39.841Z,9.90
2023-02-11T17:26:08.098Z,9.90
2023-02-11T17:28:36.684Z,9.90
2023-02-11T17:31:08.802Z,9.90
2023-02-11T17:33:38.840Z,9.90
2023-02-11T17:36:09.055Z,9.80
2023-02-11T17:38:38.610Z,9.80
2023-02-11T17:41:07.215Z,9.80
2023-02-11T17:43:35.553Z,9.80
2023-02-11T17:46:07.557Z,9.70
2023-02-11T17:48:35.850Z,9.70
2023-02-11T17:51:05.968Z,9.70
2023-02-11T17:53:34.226Z,9.70
2023-02-11T17:56:06.359Z,9.60
2023-02-11T17:58:34.564Z,9.60
2023-02-11T18:01:02.948Z,9.60
2023-02-11T18:03:31.254Z,9.60
2023-02-11T18:06:01.056Z,9.60
2023-02-11T18:08:31.061Z,9.60
2023-02-11T18:10:59.389Z,9.60
2023-02-11T18:13:28.519Z,9.60
2023-02-11T18:15:56.744Z,9.60
2023-02-11T18:18:24.971Z,9.60
2023-02-11T18:20:57.986Z,9.60
2023-02-11T18:23:26.669Z,9.60
2023-02-11T18:25:56.376Z,9.60
2023-02-11T18:28:24.611Z,9.60
2023-02-11T18:30:58.251Z,9.60
2023-02-11T18:33:27.140Z,9.60
2023-02-11T18:35:55.711Z,9.60
2023-02-11T18:38:24.032Z,9.50
2023-02-11T18:40:53.147Z,9.50
2023-02-11T18:43:22.776Z,9.50
2023-02-11T18:45:51.793Z,9.50
2023-02-11T18:48:20.179Z,9.40
2023-02-11T18:50:48.353Z,9.40
2023-02-11T18:53:16.672Z,9.50
2023-02-11T18:55:46.331Z,9.50
2023-02-11T18:58:15.290Z,9.40
2023-02-11T19:00:50.147Z,9.40
2023-02-11T19:03:18.457Z,9.50
2023-02-11T19:05:48.791Z,9.40
2023-02-11T19:08:17.966Z,9.40
2023-02-11T19:10:49.302Z,9.40
2023-02-11T19:13:17.458Z,9.40
2023-02-11T19:15:47.873Z,9.40
2023-02-11T19:18:17.381Z,9.40
2023-02-11T19:20:45.932Z,9.40
2023-02-11T19:23:14.094Z,9.40
2023-02-11T19:25:46.841Z,9.40
2023-02-11T19:28:15.492Z,9.40
2023-02-11T19:30:43.872Z,9.40
2023-02-11T19:33:13.452Z,9.40
2023-02-11T19:35:41.874Z,9.40
2023-02-11T19:38:10.081Z,9.40
2023-02-11T19:40:38.262Z,9.40
2023-02-11T19:43:06.540Z,9.40
2023-02-11T19:45:37.809Z,9.40
2023-02-11T19:48:06.209Z,9.40
2023-02-11T19:50:35.792Z,9.40
2023-02-11T19:53:03.996Z,9.30
2023-02-11T19:55:35.075Z,9.30
2023-02-11T19:58:03.255Z,9.30
2023-02-11T20:00:31.453Z,9.30
2023-02-11T20:02:59.788Z,9.30
2023-02-11T20:05:28.161Z,9.30
2023-02-11T20:07:57.750Z,9.30
2023-02-11T20:10:26.143Z,9.10
2023-02-11T20:12:54.340Z,9.20
2023-02-11T20:15:22.537Z,9.20
2023-02-11T20:17:50.783Z,9.20
2023-02-11T20:20:19.106Z,9.20
2023-02-11T20:22:47.306Z,9.20
2023-02-11T20:25:16.952Z,9.20
2023-02-11T20:27:45.131Z,9.10
2023-02-11T20:30:14.369Z,9.10
2023-02-11T20:32:42.614Z,9.10
2023-02-11T20:35:11.224Z,9.10
2023-02-11T20:37:41.668Z,9.10
2023-02-11T20:40:11.948Z,9.10
2023-02-11T20:42:41.453Z,9.10
2023-02-11T20:45:10.270Z,9.10
2023-02-11T20:47:38.985Z,9.10
2023-02-11T20:50:08.362Z,9.10
2023-02-11T20:52:36.924Z,9.00
2023-02-11T20:55:05.451Z,9.00
2023-02-11T20:57:35.022Z,9.00
2023-02-11T21:00:05.470Z,9.10
2023-02-11T21:02:33.601Z,9.10
2023-02-11T21:05:01.737Z,9.10
2023-02-11T21:07:30.063Z,9.10
2023-02-11T21:09:58.357Z,9.10
2023-02-11T21:12:26.506Z,9.10
2023-02-11T21:14:55.008Z,9.20
2023-02-11T21:17:26.270Z,9.20
2023-02-11T21:19:54.437Z,9.20
2023-02-11T21:22:22.632Z,9.30
2023-02-11T21:24:50.990Z,9.30
2023-02-11T21:27:19.164Z,9.30
2023-02-11T21:29:54.120Z,9.30
2023-02-11T21:32:24.396Z,9.30
2023-02-11T21:34:53.867Z,9.30
2023-02-11T21:37:23.133Z,9.30
2023-02-11T21:39:51.309Z,9.30
2023-02-11T21:42:19.531Z,9.30
2023-02-11T21:44:47.674Z,9.40
2023-02-11T21:47:15.941Z,9.40
2023-02-11T21:49:45.445Z,9.40
2023-02-11T21:52:13.681Z,9.40
2023-02-11T21:54:41.874Z,9.40
2023-02-11T21:57:10.089Z,9.40
2023-02-11T21:59:38.411Z,9.40
2023-02-11T22:02:06.868Z,9.50
2023-02-11T22:04:35.039Z,9.50
2023-02-11T22:07:04.711Z,9.50
2023-02-11T22:09:33.133Z,9.50
2023-02-11T22:12:01.348Z,9.50
2023-02-11T22:14:32.184Z,9.50
2023-02-11T22:17:00.567Z,9.50
2023-02-11T22:19:28.939Z,9.50
2023-02-11T22:21:57.116Z,9.50
2023-02-11T22:24:26.709Z,9.50
2023-02-11T22:26:54.943Z,9.50
2023-02-11T22:29:23.284Z,9.60
2023-02-11T22:31:51.467Z,9.50
2023-02-11T22:34:19.701Z,9.50
2023-02-11T22:36:47.928Z,9.50
2023-02-11T22:39:17.538Z,9.50
2023-02-11T22:41:48.421Z,9.50
2023-02-11T22:44:17.768Z,9.50
2023-02-11T22:46:45.988Z,9.50
2023-02-11T22:49:16.920Z,9.60
2023-02-11T22:51:45.836Z,9.50
2023-02-11T22:54:16.473Z,9.50
2023-02-11T22:56:46.858Z,9.50
2023-02-11T22:59:43.421Z,9.50
2023-02-11T23:02:11.737Z,9.60
2023-02-11T23:04:40.013Z,9.50
2023-02-11T23:07:08.173Z,9.50
2023-02-11T23:09:36.331Z,9.50
2023-02-11T23:12:06.335Z,9.50
2023-02-11T23:14:34.539Z,9.50
2023-02-11T23:17:03.055Z,9.50
2023-02-11T23:19:31.200Z,9.50
2023-02-11T23:21:59.420Z,9.40
2023-02-11T23:24:27.673Z,9.40
2023-02-11T23:26:55.999Z,9.40
2023-02-11T23:29:25.566Z,9.40
2023-02-11T23:31:55.290Z,9.40
2023-02-11T23:34:25.365Z,9.40
2023-02-11T23:36:53.717Z,9.40
2023-02-11T23:39:21.931Z,9.40
2023-02-11T23:41:52.268Z,9.40
2023-02-11T23:44:20.441Z,9.40
2023-02-11T23:46:49.951Z,9.40
2023-02-11T23:49:18.136Z,9.40
2023-02-11T23:51:46.500Z,9.40
2023-02-11T23:54:15.574Z,9.40
2023-02-11T23:56:43.888Z,9.40
2023-02-11T23:59:12.578Z,9.40
